Time;durP1;ratioP1;P1;durP2;ratioP2;P2;SDS_P1;SDS_P2;PMS_P1;PMS_P2;Temp;Humidity;BMP_temperature;BMP_pressure;BME280_temperature;BME280_humidity;BME280_pressure;Samples;Min_cycle;Max_cycle;Signal;HPM_P1;HPM_P2
2023/01/02 00:01:39;;;;;;;10.57;2.57;;;13.00;70.20;;;;;;472184;250;29735;-80
2023/01/02 00:03:41;;;;;;;4.43;2.10;;;13.10;69.80;;;;;;472201;250;28884;-79
2023/01/02 00:05:42;;;;;;;10.27;2.73;;;13.10;69.50;;;;;;472188;250;28314;-80
2023/01/02 00:07:43;;;;;;;7.17;2.30;;;13.20;68.90;;;;;;472233;250;28415;-79
2023/01/02 00:09:44;;;;;;;5.67;2.27;;;13.20;68.50;;;;;;472219;247;28281;-81
2023/01/02 00:11:46;;;;;;;6.83;2.87;;;13.10;68.90;;;;;;472219;250;28439;-80
2023/01/02 00:13:47;;;;;;;8.50;2.57;;;13.10;69.10;;;;;;472240;250;28332;-79
2023/01/02 00:15:48;;;;;;;10.03;2.80;;;13.10;68.50;;;;;;472179;250;28507;-80
2023/01/02 00:17:49;;;;;;;5.93;2.83;;;13.20;66.90;;;;;;472206;250;28572;-80
2023/01/02 00:19:51;;;;;;;3.90;2.20;;;13.20;67.50;;;;;;472196;252;28248;-80
2023/01/02 00:21:52;;;;;;;9.00;2.50;;;13.20;67.90;;;;;;472211;250;28898;-79
2023/01/02 00:23:53;;;;;;;10.57;3.00;;;13.20;68.30;;;;;;472180;250;28812;-80
2023/01/02 00:25:54;;;;;;;5.67;2.40;;;13.10;67.60;;;;;;472169;250;28880;-81
2023/01/02 00:27:56;;;;;;;6.53;2.70;;;13.20;67.40;;;;;;472221;250;28163;-80
2023/01/02 00:29:57;;;;;;;7.10;2.60;;;13.20;65.30;;;;;;472207;250;28223;-80
2023/01/02 00:31:58;;;;;;;8.60;2.50;;;13.30;66.90;;;;;;472187;250;28495;-80
2023/01/02 00:33:59;;;;;;;8.60;2.80;;;13.30;66.50;;;;;;472154;250;28360;-80
2023/01/02 00:36:01;;;;;;;6.60;3.10;;;13.20;67.20;;;;;;472190;250;28844;-81
2023/01/02 00:38:02;;;;;;;10.80;2.43;;;13.20;66.10;;;;;;472219;250;28084;-80
2023/01/02 00:40:03;;;;;;;10.23;2.83;;;13.20;66.50;;;;;;472169;250;28239;-79
2023/01/02 00:42:04;;;;;;;16.70;2.90;;;13.10;66.00;;;;;;472171;250;28271;-80
2023/01/02 00:44:06;;;;;;;4.80;2.23;;;13.00;67.30;;;;;;472166;250;29093;-80
2023/01/02 00:46:07;;;;;;;6.10;2.77;;;13.20;65.90;;;;;;472181;250;28760;-80
2023/01/02 00:48:08;;;;;;;5.23;2.40;;;13.10;66.20;;;;;;472188;250;28773;-80
2023/01/02 00:50:09;;;;;;;8.50;2.40;;;13.10;66.10;;;;;;472146;250;28804;-80
2023/01/02 00:52:11;;;;;;;8.03;2.23;;;13.20;65.60;;;;;;472144;250;28473;-81
2023/01/02 00:54:12;;;;;;;4.13;2.30;;;13.20;65.70;;;;;;472097;250;28919;-80
2023/01/02 00:56:13;;;;;;;5.47;2.57;;;13.10;64.90;;;;;;472176;250;28177;-80
2023/01/02 00:58:14;;;;;;;9.93;2.50;;;13.10;64.60;;;;;;472168;250;28277;-80
2023/01/02 01:00:16;;;;;;;9.53;3.10;;;13.20;65.30;;;;;;472138;250;28593;-80
2023/01/02 01:02:17;;;;;;;7.00;2.57;;;13.20;65.70;;;;;;472142;250;29071;-80
2023/01/02 01:04:18;;;;;;;7.17;2.20;;;13.10;65.90;;;;;;472110;250;28516;-79
2023/01/02 01:06:20;;;;;;;5.73;2.33;;;13.20;65.80;;;;;;472163;250;29371;-80
2023/01/02 01:08:21;;;;;;;10.07;2.40;;;13.20;64.90;;;;;;472138;250;28722;-80
2023/01/02 01:10:22;;;;;;;5.77;2.17;;;13.10;64.90;;;;;;472181;250;28693;-79
2023/01/02 01:12:23;;;;;;;10.50;2.93;;;13.30;64.60;;;;;;472141;250;28392;-78
2023/01/02 01:14:25;;;;;;;5.43;2.50;;;13.40;64.50;;;;;;472183;251;28249;-79
2023/01/02 01:16:26;;;;;;;7.30;2.53;;;13.40;64.40;;;;;;472196;250;28311;-80
2023/01/02 01:18:27;;;;;;;6.33;2.27;;;13.40;64.00;;;;;;472190;250;28290;-81
2023/01/02 01:20:28;;;;;;;7.33;2.43;;;13.40;63.20;;;;;;472161;246;28246;-80
2023/01/02 01:22:30;;;;;;;6.20;2.10;;;13.50;64.00;;;;;;472226;250;28324;-80
2023/01/02 01:24:31;;;;;;;6.20;2.20;;;13.50;62.20;;;;;;472183;250;28332;-80
2023/01/02 01:26:32;;;;;;;7.73;2.67;;;13.60;63.50;;;;;;472183;250;28309;-80
2023/01/02 01:28:33;;;;;;;6.53;2.60;;;13.50;64.60;;;;;;472186;250;28865;-80
2023/01/02 01:30:35;;;;;;;6.93;2.10;;;13.40;64.60;;;;;;472184;247;28684;-80
2023/01/02 01:32:36;;;;;;;7.60;2.50;;;13.40;64.20;;;;;;472197;250;28765;-80
2023/01/02 01:34:38;;;;;;;4.83;1.70;;;;;;;;;;472186;250;28761;-80
2023/01/02 01:36:40;;;;;;;6.03;2.67;;;13.40;64.60;;;;;;472202;252;26905;-80
2023/01/02 01:38:41;;;;;;;9.40;3.07;;;13.40;64.50;;;;;;472214;250;28313;-79
2023/01/02 01:40:42;;;;;;;4.13;2.13;;;13.50;63.40;;;;;;472198;250;28272;-81
2023/01/02 01:42:43;;;;;;;9.37;2.20;;;13.50;63.90;;;;;;472183;250;28224;-80
2023/01/02 01:44:45;;;;;;;10.47;2.60;;;13.50;64.00;;;;;;472266;250;28295;-80
2023/01/02 01:46:46;;;;;;;5.50;2.20;;;13.50;63.30;;;;;;472262;250;28489;-79
2023/01/02 01:48:47;;;;;;;6.43;2.20;;;13.50;63.00;;;;;;472248;247;28317;-79
2023/01/02 01:50:48;;;;;;;12.93;2.80;;;13.60;62.60;;;;;;472195;250;28295;-81
2023/01/02 01:52:50;;;;;;;8.73;2.60;;;13.60;62.50;;;;;;472197;250;28599;-80
2023/01/02 01:54:51;;;;;;;10.70;3.00;;;13.50;63.20;;;;;;472208;250;28728;-80
2023/01/02 01:56:52;;;;;;;13.10;2.80;;;13.60;62.60;;;;;;472232;250;28807;-82
2023/01/02 01:58:53;;;;;;;8.57;2.90;;;13.60;63.40;;;;;;472207;250;28253;-79
2023/01/02 02:00:55;;;;;;;7.73;2.67;;;13.60;64.40;;;;;;472204;250;28397;-81
2023/01/02 02:02:56;;;;;;;11.07;2.23;;;13.50;64.10;;;;;;472184;250;28183;-80
2023/01/02 02:04:57;;;;;;;9.47;2.43;;;13.50;64.80;;;;;;472203;250;28184;-80
2023/01/02 02:06:58;;;;;;;7.90;2.23;;;13.40;64.70;;;;;;472223;247;28345;-81
2023/01/02 02:09:00;;;;;;;5.47;2.10;;;13.40;65.20;;;;;;472209;250;28171;-80
2023/01/02 02:11:01;;;;;;;8.80;2.40;;;13.40;64.00;;;;;;472186;250;28256;-80
2023/01/02 02:13:03;;;;;;;7.33;2.60;;;;;;;;;;472191;251;28288;-80
2023/01/02 02:15:05;;;;;;;12.50;2.90;;;13.20;65.10;;;;;;472215;252;27334;-79
2023/01/02 02:17:06;;;;;;;6.13;2.37;;;13.30;64.00;;;;;;472193;250;28803;-79
2023/01/02 02:19:08;;;;;;;6.10;2.30;;;;;;;;;;472196;250;28781;-79
2023/01/02 02:21:10;;;;;;;6.40;2.17;;;13.30;64.10;;;;;;472213;252;27009;-80
2023/01/02 02:23:11;;;;;;;8.93;2.90;;;13.30;64.30;;;;;;472236;250;28435;-80
2023/01/02 02:25:12;;;;;;;8.50;2.40;;;13.40;63.30;;;;;;472212;250;28192;-80
2023/01/02 02:27:13;;;;;;;7.80;2.50;;;13.40;63.40;;;;;;472193;250;28201;-80
2023/01/02 02:29:15;;;;;;;7.10;2.70;;;13.40;62.30;;;;;;472150;247;28228;-80
2023/01/02 02:31:16;;;;;;;9.00;3.17;;;13.40;63.30;;;;;;472177;250;28266;-79
2023/01/02 02:33:17;;;;;;;8.40;2.53;;;13.40;63.70;;;;;;472150;250;28921;-80
2023/01/02 02:35:18;;;;;;;12.20;3.00;;;13.50;63.10;;;;;;472204;250;28491;-79
2023/01/02 02:37:20;;;;;;;9.10;2.83;;;13.40;66.40;;;;;;472192;251;28415;-80
2023/01/02 02:39:21;;;;;;;11.40;3.00;;;13.30;68.20;;;;;;472207;250;29642;-80
2023/01/02 02:41:22;;;;;;;6.13;2.93;;;13.30;69.70;;;;;;472231;250;28798;-80
2023/01/02 02:43:23;;;;;;;6.83;2.90;;;13.10;71.70;;;;;;472209;250;28772;-80
2023/01/02 02:45:25;;;;;;;7.07;2.30;;;13.00;72.90;;;;;;472246;250;28267;-79
2023/01/02 02:47:26;;;;;;;8.63;2.13;;;12.80;73.60;;;;;;472183;250;28264;-80
2023/01/02 02:49:27;;;;;;;6.13;2.33;;;12.70;73.80;;;;;;472206;250;28266;-80
2023/01/02 02:51:29;;;;;;;5.93;2.67;;;12.50;76.10;;;;;;472214;250;28293;-79
2023/01/02 02:53:30;;;;;;;6.60;2.30;;;12.50;74.80;;;;;;472223;250;28529;-81
2023/01/02 02:55:32;;;;;;;3.87;1.80;;;;;;;;;;472190;250;28910;-80
2023/01/02 02:57:33;;;;;;;7.47;2.67;;;12.50;74.20;;;;;;472197;252;26978;-79
2023/01/02 02:59:35;;;;;;;9.00;2.50;;;12.50;73.20;;;;;;472196;251;28876;-80
2023/01/02 03:01:36;;;;;;;5.20;2.20;;;12.40;75.30;;;;;;472213;250;29343;-80
2023/01/02 03:03:37;;;;;;;5.67;2.10;;;12.40;75.70;;;;;;472238;250;28457;-80
2023/01/02 03:05:38;;;;;;;7.57;2.80;;;12.20;76.40;;;;;;472203;250;29148;-80
2023/01/02 03:07:40;;;;;;;8.37;2.63;;;12.20;73.70;;;;;;472179;252;28574;-79
2023/01/02 03:09:41;;;;;;;4.93;2.20;;;12.20;74.60;;;;;;472203;250;28396;-80
2023/01/02 03:11:42;;;;;;;4.77;2.40;;;12.20;74.00;;;;;;472232;250;28359;-79
2023/01/02 03:13:43;;;;;;;9.23;2.50;;;12.20;72.40;;;;;;472236;250;28573;-79
2023/01/02 03:15:45;;;;;;;10.47;2.60;;;12.30;72.90;;;;;;472204;250;28083;-80
2023/01/02 03:17:46;;;;;;;7.83;2.60;;;12.20;72.80;;;;;;472222;250;28940;-79
2023/01/02 03:19:47;;;;;;;5.30;2.30;;;12.20;73.00;;;;;;472233;250;28940;-79
2023/01/02 03:21:48;;;;;;;6.10;2.70;;;12.10;73.20;;;;;;472241;250;28511;-80
2023/01/02 03:23:50;;;;;;;10.20;2.93;;;12.10;73.50;;;;;;472221;250;29406;-79
2023/01/02 03:25:51;;;;;;;3.63;2.20;;;12.00;72.50;;;;;;472192;247;28709;-79
2023/01/02 03:27:53;;;;;;;7.60;2.43;;;;;;;;;;472166;251;28812;-80
2023/01/02 03:29:55;;;;;;;8.40;2.73;;;12.00;71.80;;;;;;472189;252;26897;-79
2023/01/02 03:31:56;;;;;;;5.17;2.60;;;12.10;71.80;;;;;;472216;250;28404;-79
2023/01/02 03:33:57;;;;;;;8.77;2.60;;;12.10;71.70;;;;;;472180;250;28350;-80
2023/01/02 03:35:58;;;;;;;10.20;2.33;;;12.10;71.40;;;;;;472211;250;28445;-80
2023/01/02 03:38:00;;;;;;;4.57;2.73;;;12.10;70.50;;;;;;472228;250;28137;-79
2023/01/02 03:40:01;;;;;;;7.40;2.30;;;12.20;70.30;;;;;;472202;250;28176;-79
2023/01/02 03:42:02;;;;;;;5.70;2.33;;;12.20;70.90;;;;;;472161;250;28865;-80
2023/01/02 03:44:03;;;;;;;9.33;2.63;;;12.20;69.50;;;;;;472172;250;28162;-80
2023/01/02 03:46:05;;;;;;;6.33;2.40;;;12.20;69.80;;;;;;472187;252;28311;-80
2023/01/02 03:48:06;;;;;;;10.53;2.60;;;12.30;68.70;;;;;;472215;250;28591;-79
2023/01/02 03:50:07;;;;;;;9.30;2.70;;;12.30;69.40;;;;;;472231;252;28700;-80
2023/01/02 03:52:08;;;;;;;9.30;2.47;;;12.30;68.40;;;;;;472203;250;28711;-80
2023/01/02 03:54:10;;;;;;;7.03;2.90;;;12.30;69.00;;;;;;472131;250;28284;-80
2023/01/02 03:56:11;;;;;;;9.40;2.70;;;12.40;69.10;;;;;;472207;247;28399;-80
2023/01/02 03:58:12;;;;;;;6.50;2.83;;;12.30;69.10;;;;;;472204;250;28483;-81
2023/01/02 04:00:13;;;;;;;14.33;3.00;;;12.30;68.80;;;;;;472221;250;28618;-80
2023/01/02 04:02:15;;;;;;;9.27;2.90;;;12.20;68.70;;;;;;472173;250;28603;-80
2023/01/02 04:04:16;;;;;;;8.90;2.80;;;12.20;69.10;;;;;;472174;250;28394;-79
2023/01/02 04:06:17;;;;;;;6.23;2.23;;;12.10;68.20;;;;;;472200;246;28655;-80
2023/01/02 04:08:18;;;;;;;11.80;2.90;;;12.10;67.90;;;;;;472205;250;28835;-79
2023/01/02 04:10:20;;;;;;;9.30;2.77;;;12.30;66.30;;;;;;472200;250;29087;-80
2023/01/02 04:12:22;;;;;;;14.37;2.80;;;12.40;66.50;;;;;;472183;250;28621;-79
2023/01/02 04:14:22;;;;;;;6.57;2.43;;;12.40;66.80;;;;;;472077;250;28752;-79
2023/01/02 04:16:23;;;;;;;7.33;3.03;;;12.40;67.00;;;;;;472182;251;28029;-80
2023/01/02 04:18:25;;;;;;;16.30;3.30;;;12.40;67.40;;;;;;472218;250;28150;-79
2023/01/02 04:20:26;;;;;;;12.37;3.00;;;12.50;65.90;;;;;;472197;250;28643;-80
2023/01/02 04:22:27;;;;;;;8.10;2.70;;;12.50;65.80;;;;;;472193;250;28371;-80
2023/01/02 04:24:28;;;;;;;13.33;3.20;;;12.50;66.60;;;;;;472184;250;28351;-80
2023/01/02 04:26:30;;;;;;;7.07;2.23;;;12.50;64.80;;;;;;472192;247;28842;-79
2023/01/02 04:28:31;;;;;;;16.67;2.87;;;12.50;66.20;;;;;;472228;251;28536;-79
2023/01/02 04:30:32;;;;;;;9.03;2.37;;;12.60;64.80;;;;;;472209;251;29176;-80
2023/01/02 04:32:34;;;;;;;4.63;2.17;;;12.60;64.40;;;;;;472194;250;28839;-80
2023/01/02 04:34:35;;;;;;;7.67;2.23;;;12.70;64.60;;;;;;472200;250;29182;-81
2023/01/02 04:36:36;;;;;;;6.97;2.50;;;12.80;63.50;;;;;;472211;250;28308;-80
2023/01/02 04:38:37;;;;;;;7.50;2.63;;;12.70;64.30;;;;;;472233;250;28472;-80
2023/01/02 04:40:38;;;;;;;7.33;2.40;;;12.70;63.90;;;;;;472232;250;28082;-80
2023/01/02 04:42:40;;;;;;;9.70;2.50;;;12.80;63.80;;;;;;472211;251;28510;-79
2023/01/02 04:44:41;;;;;;;9.83;2.77;;;12.80;63.40;;;;;;472199;250;28537;-80
2023/01/02 04:46:42;;;;;;;11.70;3.10;;;12.90;62.30;;;;;;472230;250;28313;-80
2023/01/02 04:48:43;;;;;;;11.40;3.00;;;12.80;63.60;;;;;;472247;250;28789;-80
2023/01/02 04:50:45;;;;;;;13.03;3.20;;;12.80;62.90;;;;;;472203;247;28933;-80
2023/01/02 04:52:46;;;;;;;13.50;3.30;;;12.80;63.00;;;;;;472209;250;28838;-81
2023/01/02 04:54:49;;;;;;;13.07;3.00;;;;;;;;;;472145;250;28658;-79
2023/01/02 04:56:50;;;;;;;9.93;2.90;;;12.60;64.30;;;;;;472206;252;27324;-80
2023/01/02 04:58:51;;;;;;;7.77;2.20;;;12.60;64.10;;;;;;472217;250;28146;-80
2023/01/02 05:00:54;;;;;;;10.40;3.00;;;;;;;;;;472210;247;28483;-79
2023/01/02 05:02:55;;;;;;;11.10;3.07;;;12.70;63.00;;;;;;472186;252;27845;-81
2023/01/02 05:04:56;;;;;;;11.63;2.80;;;12.70;63.60;;;;;;472211;250;28505;-79
2023/01/02 05:06:57;;;;;;;8.80;2.73;;;12.70;63.20;;;;;;472203;250;28534;-79
2023/01/02 05:08:58;;;;;;;10.67;2.43;;;12.60;64.20;;;;;;472173;247;28577;-79
2023/01/02 05:11:00;;;;;;;7.93;2.70;;;12.60;64.20;;;;;;472165;250;29104;-79
2023/01/02 05:13:01;;;;;;;14.70;2.87;;;12.70;63.30;;;;;;472190;252;29531;-80
2023/01/02 05:15:02;;;;;;;9.23;2.97;;;12.60;63.60;;;;;;472200;250;28828;-79
2023/01/02 05:17:03;;;;;;;10.13;3.43;;;12.60;63.90;;;;;;472219;250;28043;-80
2023/01/02 05:19:05;;;;;;;8.17;2.47;;;12.60;63.90;;;;;;472211;250;28510;-80
2023/01/02 05:21:06;;;;;;;12.80;2.60;;;12.60;63.70;;;;;;472183;250;28081;-80
2023/01/02 05:25:27;;;;;;;8.43;2.50;;;12.50;65.00;;;;;;472147;252;28185;-79
2023/01/02 05:27:28;;;;;;;29.57;3.50;;;12.50;64.80;;;;;;472221;250;28445;-80
2023/01/02 05:29:29;;;;;;;12.17;2.60;;;12.50;63.90;;;;;;472189;250;28102;-79
2023/01/02 05:31:31;;;;;;;12.33;2.70;;;12.50;64.50;;;;;;472215;250;28177;-81
2023/01/02 05:33:32;;;;;;;11.47;2.90;;;12.60;64.30;;;;;;472222;250;28509;-80
2023/01/02 05:35:33;;;;;;;8.50;2.70;;;12.60;64.80;;;;;;472198;250;28522;-80
2023/01/02 05:37:34;;;;;;;11.87;2.67;;;12.60;64.70;;;;;;472161;250;28895;-80
2023/01/02 05:39:36;;;;;;;8.90;2.37;;;12.60;64.10;;;;;;472182;250;30158;-81
2023/01/02 05:41:38;;;;;;;9.00;2.80;;;12.70;64.10;;;;;;472245;250;28962;-79
2023/01/02 05:43:39;;;;;;;7.80;2.60;;;;;;;;;;472192;251;28776;-79
2023/01/02 05:45:41;;;;;;;12.80;3.20;;;12.60;64.30;;;;;;472190;252;27020;-80
2023/01/02 05:47:42;;;;;;;11.90;3.60;;;12.60;65.20;;;;;;472194;252;28419;-80
2023/01/02 05:49:43;;;;;;;9.90;2.80;;;12.60;65.00;;;;;;472220;250;28220;-79
2023/01/02 05:51:44;;;;;;;13.40;3.70;;;12.60;64.80;;;;;;472217;250;28330;-81
2023/01/02 05:53:46;;;;;;;7.63;2.93;;;12.60;65.20;;;;;;472167;250;28398;-80
2023/01/02 05:55:47;;;;;;;9.90;2.47;;;12.50;64.70;;;;;;472209;250;28501;-79
2023/01/02 05:57:48;;;;;;;13.13;2.80;;;12.50;64.80;;;;;;472211;251;28436;-80
2023/01/02 05:59:49;;;;;;;16.53;3.40;;;12.50;65.00;;;;;;472229;250;28476;-80
2023/01/02 06:01:51;;;;;;;12.73;3.37;;;12.50;65.30;;;;;;472232;250;28949;-80
2023/01/02 06:03:52;;;;;;;15.27;3.30;;;12.60;64.50;;;;;;472201;250;28610;-79
2023/01/02 06:05:53;;;;;;;10.90;2.77;;;12.50;64.40;;;;;;472204;250;28355;-80
2023/01/02 06:07:54;;;;;;;12.30;2.83;;;12.60;64.10;;;;;;472200;250;28151;-79
2023/01/02 06:09:56;;;;;;;6.70;3.30;;;12.60;64.80;;;;;;472258;250;28555;-79
2023/01/02 06:11:57;;;;;;;9.17;2.87;;;12.60;64.30;;;;;;472252;250;28501;-81
2023/01/02 06:13:58;;;;;;;16.10;3.20;;;12.50;64.90;;;;;;472256;250;28502;-79
2023/01/02 06:15:59;;;;;;;11.50;2.80;;;12.50;64.90;;;;;;472191;250;28621;-81
2023/01/02 06:18:01;;;;;;;9.00;2.77;;;12.40;65.50;;;;;;472208;250;28408;-80
2023/01/02 06:20:02;;;;;;;10.40;3.30;;;12.40;65.60;;;;;;472223;250;28818;-80
2023/01/02 06:22:03;;;;;;;14.63;3.10;;;12.40;65.50;;;;;;472224;250;28537;-80
2023/01/02 06:24:06;;;;;;;14.43;3.27;;;;;;;;;;472142;250;28885;-80
2023/01/02 06:26:07;;;;;;;7.77;2.70;;;12.40;65.50;;;;;;472202;252;27021;-80
2023/01/02 06:28:08;;;;;;;17.40;2.97;;;12.40;65.80;;;;;;472167;251;28353;-80
2023/01/02 06:30:09;;;;;;;14.80;2.90;;;12.40;65.70;;;;;;472229;250;28592;-80
2023/01/02 06:32:12;;;;;;;10.90;3.00;;;;;;;;;;472201;250;28496;-79
2023/01/02 06:34:13;;;;;;;6.23;2.97;;;12.40;66.60;;;;;;472177;252;27249;-80
2023/01/02 06:36:14;;;;;;;16.03;3.40;;;12.40;66.40;;;;;;472239;250;28385;-79
2023/01/02 06:38:16;;;;;;;19.10;2.97;;;12.40;66.40;;;;;;472190;250;28495;-80
2023/01/02 06:40:17;;;;;;;11.27;3.00;;;12.40;66.20;;;;;;472200;250;28896;-81
2023/01/02 06:42:18;;;;;;;14.70;2.70;;;12.40;66.20;;;;;;472180;246;28884;-80
2023/01/02 06:44:19;;;;;;;11.60;3.00;;;12.40;66.30;;;;;;472185;250;29034;-81
2023/01/02 06:46:21;;;;;;;12.40;3.10;;;12.40;66.40;;;;;;472207;250;28126;-80
2023/01/02 06:48:22;;;;;;;11.10;2.97;;;12.30;66.90;;;;;;472209;250;28614;-79
2023/01/02 06:50:23;;;;;;;10.30;3.30;;;12.30;66.50;;;;;;472203;250;28332;-80
2023/01/02 06:52:24;;;;;;;13.93;3.50;;;12.30;66.70;;;;;;472160;250;28499;-79
2023/01/02 06:54:26;;;;;;;9.90;2.97;;;12.30;67.00;;;;;;472222;250;28806;-81
2023/01/02 06:56:27;;;;;;;11.80;2.40;;;12.20;67.40;;;;;;472204;250;28244;-80
2023/01/02 06:58:28;;;;;;;16.60;2.93;;;12.20;67.10;;;;;;472186;250;28894;-80
2023/01/02 07:00:29;;;;;;;12.97;3.33;;;12.30;66.70;;;;;;472200;250;28561;-79
2023/01/02 07:02:31;;;;;;;9.50;3.00;;;12.30;67.00;;;;;;472165;250;29220;-80
2023/01/02 07:04:32;;;;;;;6.80;3.20;;;12.30;67.50;;;;;;472201;250;28416;-80
2023/01/02 07:06:33;;;;;;;8.07;2.63;;;12.30;66.90;;;;;;472179;250;28362;-80
2023/01/02 07:08:34;;;;;;;13.50;3.37;;;12.20;67.50;;;;;;472203;250;28900;-81
2023/01/02 07:10:36;;;;;;;9.27;2.80;;;12.20;67.80;;;;;;472197;250;28439;-79
2023/01/02 07:12:37;;;;;;;13.13;2.57;;;12.20;68.10;;;;;;472204;250;28484;-80
2023/01/02 07:14:38;;;;;;;11.23;2.97;;;12.10;68.60;;;;;;472216;250;28478;-81
2023/01/02 07:16:40;;;;;;;11.53;2.87;;;12.10;68.40;;;;;;472167;250;28362;-80
2023/01/02 07:18:41;;;;;;;14.97;2.80;;;12.10;68.70;;;;;;472190;250;29178;-79
2023/01/02 07:20:42;;;;;;;11.33;3.00;;;12.10;68.40;;;;;;472202;251;28837;-80
2023/01/02 07:22:43;;;;;;;13.27;3.13;;;12.10;69.00;;;;;;472171;250;28681;-80
2023/01/02 07:24:45;;;;;;;15.27;3.20;;;12.10;68.90;;;;;;472216;251;28315;-80
2023/01/02 07:26:46;;;;;;;10.93;3.57;;;12.10;68.50;;;;;;472202;250;28245;-80
2023/01/02 07:28:47;;;;;;;15.03;2.90;;;12.20;69.00;;;;;;472219;250;28227;-79
2023/01/02 07:30:48;;;;;;;15.80;3.07;;;12.20;68.40;;;;;;472214;250;28410;-80
2023/01/02 07:32:50;;;;;;;9.30;2.80;;;12.20;68.30;;;;;;472222;250;28287;-81
2023/01/02 07:34:51;;;;;;;12.90;3.10;;;12.20;68.80;;;;;;472226;250;28359;-79
2023/01/02 07:36:52;;;;;;;12.93;3.30;;;12.10;69.30;;;;;;472209;250;28531;-79
2023/01/02 07:38:53;;;;;;;7.63;3.20;;;12.10;69.20;;;;;;472217;250;28648;-80
2023/01/02 07:40:55;;;;;;;17.33;3.57;;;12.00;69.70;;;;;;472211;250;29206;-80
2023/01/02 07:42:56;;;;;;;14.50;3.50;;;12.00;69.90;;;;;;472224;250;28114;-80
2023/01/02 07:44:57;;;;;;;8.87;3.43;;;12.00;69.90;;;;;;472247;250;28428;-80
2023/01/02 07:46:58;;;;;;;15.13;3.00;;;12.00;70.30;;;;;;472183;250;28665;-79
2023/01/02 07:49:00;;;;;;;12.50;3.10;;;12.00;70.10;;;;;;472166;250;28526;-81
2023/01/02 07:51:01;;;;;;;11.80;3.07;;;12.00;70.10;;;;;;472162;250;28466;-80
2023/01/02 07:53:02;;;;;;;15.03;3.10;;;12.10;69.80;;;;;;472193;251;28289;-80
2023/01/02 07:55:03;;;;;;;16.93;2.73;;;12.10;70.00;;;;;;472196;250;28436;-80
2023/01/02 07:57:05;;;;;;;14.07;2.90;;;12.10;70.00;;;;;;472192;250;28811;-79
2023/01/02 07:59:06;;;;;;;7.40;2.60;;;12.10;69.70;;;;;;472179;251;28632;-80
2023/01/02 08:01:07;;;;;;;16.73;4.20;;;12.20;70.30;;;;;;472147;252;30791;-79
2023/01/02 08:03:08;;;;;;;13.23;3.47;;;12.10;70.70;;;;;;472182;250;28551;-79
2023/01/02 08:05:10;;;;;;;11.93;3.30;;;12.10;71.40;;;;;;472182;250;28127;-80
2023/01/02 08:07:11;;;;;;;10.77;3.57;;;12.10;72.10;;;;;;472189;250;28328;-81
2023/01/02 08:09:12;;;;;;;10.27;3.40;;;12.20;70.80;;;;;;472160;250;28534;-79
2023/01/02 08:11:13;;;;;;;13.33;3.23;;;12.20;71.20;;;;;;472189;250;28456;-80
2023/01/02 08:13:15;;;;;;;8.03;3.23;;;12.20;71.80;;;;;;472211;250;28570;-80
2023/01/02 08:15:16;;;;;;;10.33;2.43;;;12.10;72.10;;;;;;472178;250;28626;-80
2023/01/02 08:17:17;;;;;;;10.10;2.77;;;12.10;72.20;;;;;;472206;250;28496;-80
2023/01/02 08:19:18;;;;;;;11.73;3.77;;;12.10;72.80;;;;;;472133;247;28979;-81
2023/01/02 08:21:20;;;;;;;13.27;3.20;;;12.10;73.20;;;;;;472185;250;28757;-79
2023/01/02 08:23:21;;;;;;;8.50;3.10;;;12.10;72.80;;;;;;472198;250;28443;-80
2023/01/02 08:25:22;;;;;;;8.93;3.30;;;12.20;73.10;;;;;;472198;250;28241;-81
2023/01/02 08:27:23;;;;;;;9.07;2.97;;;12.20;73.90;;;;;;472206;250;28439;-80
2023/01/02 08:29:25;;;;;;;7.33;3.23;;;12.20;73.60;;;;;;472163;250;28171;-80
2023/01/02 08:31:26;;;;;;;11.50;3.23;;;12.10;73.70;;;;;;472202;251;28422;-82
2023/01/02 08:33:27;;;;;;;12.27;3.30;;;12.10;73.90;;;;;;472192;250;28470;-80
2023/01/02 08:35:30;;;;;;;8.50;2.90;;;12.10;73.90;;;;;;472156;251;28837;-79
2023/01/02 08:37:30;;;;;;;11.70;2.83;;;12.10;73.90;;;;;;472099;252;29014;-80
2023/01/02 08:39:32;;;;;;;6.90;2.73;;;;;;;;;;472209;251;28638;-79
2023/01/02 08:41:33;;;;;;;14.50;2.80;;;12.10;75.00;;;;;;472193;252;27774;-80
2023/01/02 08:43:35;;;;;;;18.10;3.03;;;12.00;75.00;;;;;;472188;247;28483;-79
2023/01/02 08:45:36;;;;;;;9.70;2.83;;;12.10;75.00;;;;;;472185;250;28324;-80
2023/01/02 08:47:37;;;;;;;5.80;2.53;;;12.00;74.90;;;;;;472163;250;28599;-79
2023/01/02 08:49:38;;;;;;;16.73;3.87;;;12.10;75.50;;;;;;472154;250;28413;-79
2023/01/02 08:51:41;;;;;;;11.60;3.20;;;;;;;;;;472180;250;28589;-80
2023/01/02 08:53:42;;;;;;;7.47;2.73;;;12.00;75.10;;;;;;472138;252;26652;-79
2023/01/02 08:55:43;;;;;;;9.37;3.10;;;12.10;74.70;;;;;;472135;250;29115;-80
2023/01/02 08:57:45;;;;;;;13.00;3.27;;;12.20;75.50;;;;;;472179;252;28624;-80
2023/01/02 08:59:46;;;;;;;10.77;2.77;;;12.10;75.00;;;;;;472199;250;28938;-79
2023/01/02 09:01:47;;;;;;;10.93;2.60;;;12.10;75.30;;;;;;472199;247;28505;-79
2023/01/02 09:03:48;;;;;;;10.47;3.20;;;12.10;75.40;;;;;;472187;250;28554;-80
2023/01/02 09:05:50;;;;;;;6.40;3.20;;;12.20;75.00;;;;;;472176;250;28737;-80
2023/01/02 09:07:51;;;;;;;10.13;3.47;;;12.10;75.40;;;;;;472226;250;28417;-79
2023/01/02 09:09:52;;;;;;;11.47;2.80;;;12.10;74.90;;;;;;472245;250;28236;-80
2023/01/02 09:11:53;;;;;;;10.53;3.50;;;12.10;75.00;;;;;;472200;252;28633;-79
2023/01/02 09:13:55;;;;;;;10.10;3.17;;;12.20;74.80;;;;;;472191;250;28368;-79
2023/01/02 09:15:56;;;;;;;12.80;2.83;;;12.30;74.60;;;;;;472162;250;29073;-79
2023/01/02 09:17:58;;;;;;;9.77;3.27;;;12.30;74.90;;;;;;472232;250;28820;-80
2023/01/02 09:19:59;;;;;;;10.87;2.73;;;12.30;75.50;;;;;;472212;250;28196;-79
2023/01/02 09:22:00;;;;;;;13.87;3.53;;;12.30;75.20;;;;;;472222;250;28532;-79
2023/01/02 09:24:01;;;;;;;14.47;2.97;;;12.30;75.30;;;;;;472172;250;29460;-80
2023/01/02 09:26:02;;;;;;;16.13;3.60;;;12.40;74.90;;;;;;472135;250;28559;-80
2023/01/02 09:28:04;;;;;;;11.30;3.33;;;12.50;75.00;;;;;;472223;246;28475;-80
2023/01/02 09:30:05;;;;;;;11.57;3.07;;;12.60;75.60;;;;;;472183;250;28508;-80
2023/01/02 09:32:06;;;;;;;8.27;3.17;;;12.50;75.20;;;;;;472173;250;28444;-81
2023/01/02 09:34:07;;;;;;;17.40;4.07;;;12.70;74.80;;;;;;472171;250;28155;-80
2023/01/02 09:36:09;;;;;;;14.23;3.13;;;12.70;74.10;;;;;;472172;250;28341;-79
2023/01/02 09:38:10;;;;;;;11.47;3.43;;;12.70;74.80;;;;;;472183;251;28443;-80
2023/01/02 09:40:11;;;;;;;15.83;3.17;;;12.70;75.10;;;;;;472204;250;28673;-80
2023/01/02 09:42:12;;;;;;;10.23;3.20;;;12.70;74.30;;;;;;472211;250;28626;-80
2023/01/02 09:44:14;;;;;;;12.53;3.43;;;12.70;75.90;;;;;;472148;250;28176;-79
2023/01/02 09:46:15;;;;;;;15.93;3.30;;;12.60;75.70;;;;;;472131;250;28493;-80
2023/01/02 09:48:16;;;;;;;9.57;2.97;;;12.60;76.20;;;;;;472197;250;28741;-81
2023/01/02 09:50:17;;;;;;;12.20;3.43;;;12.60;75.10;;;;;;472213;250;28167;-80
2023/01/02 09:52:19;;;;;;;18.93;3.40;;;12.60;76.30;;;;;;472176;252;28310;-79
2023/01/02 09:54:20;;;;;;;16.37;3.30;;;12.60;76.80;;;;;;472145;251;28982;-80
2023/01/02 09:56:21;;;;;;;8.17;3.10;;;12.60;76.80;;;;;;472148;250;29126;-80
2023/01/02 09:58:22;;;;;;;12.30;3.20;;;12.60;77.50;;;;;;472218;250;28806;-79
2023/01/02 10:00:25;;;;;;;6.03;2.60;;;12.60;77.40;;;;;;472191;250;28776;-80
2023/01/02 10:02:25;;;;;;;8.50;3.60;;;12.60;78.20;;;;;;472133;250;28341;-80
2023/01/02 10:04:28;;;;;;;10.23;2.80;;;12.60;79.10;;;;;;472193;250;28470;-80
2023/01/02 10:06:27;;;;;;;13.63;4.00;;;12.60;78.70;;;;;;472126;250;28520;-80
2023/01/02 10:08:29;;;;;;;10.53;3.50;;;12.60;79.70;;;;;;472197;251;28239;-79
2023/01/02 10:10:30;;;;;;;6.93;2.80;;;12.50;81.10;;;;;;472195;250;28367;-80
2023/01/02 10:12:31;;;;;;;4.20;2.67;;;12.50;82.40;;;;;;472211;251;28907;-81
2023/01/02 10:14:32;;;;;;;8.13;3.40;;;12.40;83.80;;;;;;472212;251;28481;-79
2023/01/02 10:16:35;;;;;;;8.10;2.40;;;12.40;84.40;;;;;;472217;250;28804;-80
2023/01/02 10:18:35;;;;;;;12.57;2.80;;;12.30;85.60;;;;;;472144;252;29247;-80
2023/01/02 10:20:36;;;;;;;7.17;2.83;;;12.20;86.90;;;;;;472237;250;28710;-79
2023/01/02 10:22:37;;;;;;;6.67;3.07;;;12.10;88.80;;;;;;472242;250;28337;-81
2023/01/02 10:24:39;;;;;;;8.30;3.23;;;12.10;90.10;;;;;;472186;250;28402;-79
2023/01/02 10:26:40;;;;;;;9.23;3.10;;;11.90;90.40;;;;;;472189;250;28243;-80
2023/01/02 10:28:41;;;;;;;7.33;3.27;;;11.90;90.90;;;;;;472189;250;28632;-80
2023/01/02 10:30:42;;;;;;;10.43;3.30;;;11.90;91.30;;;;;;472231;250;28057;-79
2023/01/02 10:32:44;;;;;;;12.13;4.07;;;11.90;91.90;;;;;;472206;250;28504;-81